Time;durP1;ratioP1;P1;durP2;ratioP2;P2;SDS_P1;SDS_P2;PMS_P1;PMS_P2;Temp;Humidity;BMP_temperature;BMP_pressure;BME280_temperature;BME280_humidity;BME280_pressure;Samples;Min_cycle;Max_cycle;Signal;HPM_P1;HPM_P2
2022/03/10 00:01:22;;;;;;;11.68;7.00;;;3.60;77.00;;;3.81;nan;101486.50;5073687;28;20208;-68
2022/03/10 00:03:49;;;;;;;16.13;6.03;;;3.50;78.00;;;3.82;nan;101483.03;5072437;28;20281;-68
2022/03/10 00:06:16;;;;;;;9.50;5.50;;;3.50;78.50;;;3.82;nan;101483.88;5074043;28;20228;-69
2022/03/10 00:08:44;;;;;;;6.97;4.78;;;3.60;79.00;;;3.86;nan;101487.19;5073805;28;20700;-70
2022/03/10 00:11:11;;;;;;;15.80;7.60;;;3.60;80.60;;;3.83;nan;101489.88;5055947;28;20633;-68
2022/03/10 00:13:40;;;;;;;20.30;9.73;;;3.60;80.00;;;3.81;nan;101486.50;5073601;28;20224;-69
2022/03/10 00:16:07;;;;;;;8.90;5.55;;;3.60;79.50;;;3.85;nan;101490.69;5073783;28;20211;-69
2022/03/10 00:18:34;;;;;;;21.13;8.90;;;3.60;79.50;;;3.86;nan;101484.63;5068955;28;20598;-69
2022/03/10 00:21:01;;;;;;;19.67;8.90;;;3.60;80.30;;;3.83;nan;101474.41;5052410;28;20209;-68
2022/03/10 00:23:28;;;;;;;17.00;8.40;;;3.60;80.20;;;3.84;nan;101482.09;5049663;28;20228;-69
2022/03/10 00:25:55;;;;;;;15.43;7.05;;;3.60;80.30;;;3.88;nan;101481.09;5075550;28;20228;-70
2022/03/10 00:28:22;;;;;;;13.02;7.10;;;3.60;80.50;;;3.88;nan;101482.81;5080832;28;20196;-69
2022/03/10 00:30:49;;;;;;;9.73;6.03;;;3.70;80.80;;;3.83;nan;101489.88;5063609;28;20200;-69
2022/03/10 00:33:16;;;;;;;9.75;5.18;;;3.60;82.10;;;3.72;nan;101491.94;5070816;28;20228;-70
2022/03/10 00:35:43;;;;;;;8.38;5.57;;;3.50;83.10;;;3.66;nan;101500.69;5071781;28;20227;-69
2022/03/10 00:38:11;;;;;;;13.38;6.80;;;3.40;84.20;;;3.55;nan;101497.63;5072049;28;20719;-69
2022/03/10 00:40:38;;;;;;;19.98;9.13;;;3.30;85.00;;;3.50;nan;101504.63;5072218;28;20204;-69
2022/03/10 00:43:11;;;;;;;13.82;6.65;;;3.30;86.10;;;3.44;nan;101509.13;5063796;28;20231;-71
2022/03/10 00:45:39;;;;;;;17.10;8.80;;;3.20;87.00;;;3.39;nan;101514.41;5071918;28;20204;-70
2022/03/10 00:48:07;;;;;;;14.38;8.00;;;3.20;87.70;;;3.26;nan;101514.81;5069731;28;20664;-70
2022/03/10 00:50:33;;;;;;;17.80;7.90;;;3.10;88.70;;;3.31;nan;101507.78;5072116;28;20211;-68
2022/03/10 00:53:00;;;;;;;13.68;7.05;;;3.10;90.10;;;3.36;nan;101514.50;5072326;28;20231;-70
2022/03/10 00:55:28;;;;;;;22.75;8.77;;;3.10;90.00;;;3.35;nan;101506.78;5072417;28;20201;-68
2022/03/10 00:57:55;;;;;;;9.88;5.25;;;3.20;90.00;;;3.42;nan;101511.75;5071699;28;20204;-68
2022/03/10 01:00:24;;;;;;;14.25;6.70;;;3.20;90.30;;;3.45;nan;101513.41;5071593;28;20200;-68
2022/03/10 01:02:51;;;;;;;16.67;8.27;;;3.20;90.30;;;3.43;nan;101516.00;5072759;28;20695;-68
2022/03/10 01:05:18;;;;;;;12.75;6.88;;;3.20;90.40;;;3.39;nan;101511.84;5070487;28;20209;-70
2022/03/10 01:07:45;;;;;;;7.53;4.25;;;3.20;90.60;;;3.42;nan;101505.75;5060768;28;20225;-68
2022/03/10 01:10:14;;;;;;;11.20;5.47;;;3.20;90.90;;;3.39;nan;101509.25;5051777;28;20201;-69
2022/03/10 01:12:44;;;;;;;13.98;5.80;;;3.20;91.20;;;3.29;nan;101502.66;5049348;28;20228;-68
2022/03/10 01:15:16;;;;;;;9.00;4.18;;;3.10;91.60;;;3.06;nan;101503.31;5059059;28;20205;-67
2022/03/10 01:17:44;;;;;;;11.68;5.15;;;3.00;92.40;;;3.12;nan;101498.00;5070052;28;20217;-69
2022/03/10 01:20:14;;;;;;;9.60;4.82;;;2.90;93.00;;;2.95;nan;101504.47;5050528;28;20216;-67
2022/03/10 01:22:41;;;;;;;10.43;5.82;;;2.80;93.50;;;2.93;nan;101509.69;5059545;28;20267;-68
2022/03/10 01:25:09;;;;;;;8.02;5.15;;;2.70;94.00;;;2.89;nan;101508.09;5058895;28;20217;-69
2022/03/10 01:27:37;;;;;;;8.73;5.32;;;2.70;94.50;;;2.89;nan;101502.94;5050979;28;20248;-69
2022/03/10 01:30:08;;;;;;;9.77;5.15;;;2.70;94.90;;;2.79;nan;101509.19;5054382;28;20290;-69
2022/03/10 01:32:36;;;;;;;9.25;5.55;;;2.60;95.50;;;2.84;nan;101509.06;5069841;28;20201;-71
2022/03/10 01:35:05;;;;;;;10.88;5.63;;;2.60;95.90;;;2.71;nan;101505.13;5069899;28;20219;-69
2022/03/10 01:37:37;;;;;;;11.13;5.38;;;2.50;96.30;;;2.70;nan;101499.16;5061713;28;20558;-71
2022/03/10 01:40:07;;;;;;;10.88;5.00;;;2.50;96.80;;;2.68;nan;101500.06;5049791;28;20220;-70
2022/03/10 01:42:35;;;;;;;12.23;5.63;;;2.50;97.10;;;2.59;nan;101497.72;5042530;28;20212;-69
2022/03/10 01:45:05;;;;;;;7.43;3.65;;;2.40;97.60;;;2.62;nan;101498.47;5064206;28;20586;-68
2022/03/10 01:47:32;;;;;;;8.70;4.32;;;2.40;97.60;;;2.58;nan;101496.84;5069282;28;20247;-69
2022/03/10 01:50:00;;;;;;;11.75;4.85;;;2.40;97.90;;;2.53;nan;101498.72;5058596;28;20693;-69
2022/03/10 01:52:27;;;;;;;9.38;6.03;;;2.30;98.20;;;2.41;nan;101499.00;5050123;28;20262;-68
2022/03/10 01:54:56;;;;;;;11.68;5.00;;;2.30;98.80;;;2.41;nan;101498.19;5069135;28;20217;-69
2022/03/10 01:57:25;;;;;;;13.35;5.90;;;2.20;99.10;;;2.46;nan;101501.47;5052657;28;20208;-69
2022/03/10 01:59:54;;;;;;;12.45;7.03;;;2.30;99.10;;;2.45;nan;101502.38;5068533;28;20232;-69
2022/03/10 02:02:21;;;;;;;3.63;3.17;;;2.30;99.20;;;2.38;nan;101510.22;5068626;28;20246;-68
2022/03/10 02:04:48;;;;;;;15.02;7.05;;;2.30;99.40;;;2.28;nan;101500.19;5069020;28;20653;-73
2022/03/10 02:10:16;;;;;;;11.00;5.30;;;2.10;99.90;;;2.28;nan;101505.34;5055011;28;20657;-69
2022/03/10 02:12:49;;;;;;;14.98;7.78;;;2.10;99.90;;;2.28;nan;101502.75;5059611;28;20262;-71
2022/03/10 02:18:17;;;;;;;20.92;8.30;;;2.10;99.90;;;2.38;nan;101486.22;5051435;28;20262;-71
2022/03/10 02:20:44;;;;;;;17.27;9.20;;;2.20;99.80;;;2.33;nan;101495.78;5069355;28;20208;-69
2022/03/10 02:23:14;;;;;;;10.02;5.60;;;2.20;99.50;;;2.37;nan;101502.56;5069768;28;20225;-71
2022/03/10 02:25:42;;;;;;;18.70;8.80;;;2.20;99.40;;;2.42;nan;101490.41;5070239;28;20203;-71
2022/03/10 02:28:09;;;;;;;12.20;6.43;;;2.20;99.60;;;2.45;nan;101500.63;5068223;28;20220;-69
2022/03/10 02:30:37;;;;;;;17.05;8.30;;;2.30;99.50;;;2.40;nan;101502.47;5069289;28;20204;-69
2022/03/10 02:33:05;;;;;;;17.02;7.57;;;2.20;99.70;;;2.45;nan;101507.53;5065332;28;20224;-69
2022/03/10 02:35:32;;;;;;;12.55;6.00;;;2.20;99.60;;;2.42;nan;101511.03;5071148;28;20691;-68
2022/03/10 02:38:00;;;;;;;13.98;8.25;;;2.20;99.40;;;2.43;nan;101511.88;5064004;28;20209;-68
2022/03/10 02:40:27;;;;;;;14.18;6.15;;;2.20;99.70;;;2.47;nan;101503.19;5049308;28;20201;-69
2022/03/10 02:42:54;;;;;;;14.50;8.70;;;2.30;99.30;;;2.44;nan;101498.94;5066515;28;20221;-68
2022/03/10 02:45:23;;;;;;;17.30;8.35;;;2.30;99.20;;;2.31;nan;101508.72;5056857;28;20216;-69
2022/03/10 02:47:51;;;;;;;19.42;9.90;;;2.10;99.30;;;2.26;nan;101510.53;5054959;28;20225;-70
2022/03/10 02:50:18;;;;;;;18.13;8.80;;;2.10;99.60;;;2.28;nan;101513.06;5048592;28;20204;-71
2022/03/10 02:52:45;;;;;;;17.60;8.25;;;2.10;99.80;;;2.28;nan;101518.22;5060252;28;20660;-70
2022/03/10 02:55:13;;;;;;;13.32;7.03;;;2.10;99.90;;;2.38;nan;101524.00;5068472;28;20208;-69
2022/03/10 02:57:39;;;;;;;16.20;7.60;;;2.20;99.90;;;2.40;nan;101514.50;5061389;28;20207;-71
2022/03/10 03:00:08;;;;;;;18.50;8.27;;;2.20;99.90;;;2.38;nan;101519.72;5060730;28;20201;-69
2022/03/10 03:02:36;;;;;;;12.63;6.88;;;2.20;99.90;;;2.34;nan;101518.09;5050297;28;20270;-70
2022/03/10 03:05:04;;;;;;;14.50;7.50;;;2.20;99.90;;;2.38;nan;101517.13;5049647;28;20662;-68
2022/03/10 03:07:31;;;;;;;14.50;7.45;;;2.20;99.90;;;2.31;nan;101520.72;5059161;28;20217;-68
2022/03/10 03:09:59;;;;;;;21.13;8.23;;;2.10;99.90;;;2.36;nan;101514.56;5054351;28;20196;-69
2022/03/10 03:12:26;;;;;;;14.52;7.75;;;2.20;99.90;;;2.31;nan;101515.56;5068037;28;20679;-68
2022/03/10 03:14:54;;;;;;;12.15;6.38;;;2.20;99.90;;;2.27;nan;101517.41;5069527;28;20281;-68
2022/03/10 03:17:21;;;;;;;9.82;5.50;;;2.10;99.90;;;2.29;nan;101518.19;5067704;28;20193;-67
2022/03/10 03:19:48;;;;;;;7.28;5.10;;;2.10;99.90;;;2.20;nan;101518.41;5067002;28;20706;-70
2022/03/10 03:22:15;;;;;;;6.68;4.40;;;2.00;99.90;;;2.23;nan;101520.06;5070064;28;20204;-67
2022/03/10 03:24:42;;;;;;;8.77;4.75;;;2.00;99.90;;;2.13;nan;101528.91;5069293;28;20221;-70
2022/03/10 03:27:09;;;;;;;7.47;4.68;;;2.00;99.90;;;2.05;nan;101529.06;5071717;28;20228;-70
2022/03/10 03:29:36;;;;;;;8.23;5.10;;;1.90;99.90;;;2.02;nan;101530.88;5062892;28;20201;-70
2022/03/10 03:32:04;;;;;;;7.35;5.13;;;1.80;99.90;;;1.95;nan;101537.88;5055245;28;20212;-67
2022/03/10 03:34:32;;;;;;;9.10;5.30;;;1.80;99.90;;;1.95;nan;101531.88;5072868;22;20229;-69
2022/03/10 03:36:59;;;;;;;9.95;5.25;;;1.80;99.90;;;1.85;nan;101527.81;5036403;28;20220;-70
2022/03/10 03:39:25;;;;;;;16.38;7.00;;;1.70;99.90;;;1.85;nan;101527.81;5035185;28;20202;-69
2022/03/10 03:41:52;;;;;;;8.18;4.90;;;1.70;99.90;;;1.86;nan;101527.78;5036689;28;20209;-70
2022/03/10 03:44:20;;;;;;;10.38;5.70;;;1.70;99.90;;;1.87;nan;101531.22;5017957;28;20232;-68
2022/03/10 03:46:47;;;;;;;12.20;5.72;;;1.70;99.90;;;1.88;nan;101532.88;5032074;28;20597;-71
2022/03/10 03:49:14;;;;;;;8.60;5.60;;;1.70;99.90;;;1.84;nan;101537.25;5043830;28;20201;-71
2022/03/10 03:51:41;;;;;;;9.25;5.80;;;1.70;99.90;;;1.86;nan;101532.94;5053345;28;20551;-71
2022/03/10 03:54:09;;;;;;;8.25;4.90;;;1.70;99.90;;;1.82;nan;101536.44;5052338;28;20255;-71
2022/03/10 03:56:37;;;;;;;7.70;4.15;;;1.70;99.90;;;1.86;nan;101539.78;5019258;28;20666;-71
2022/03/10 03:59:05;;;;;;;7.88;4.65;;;1.70;99.90;;;1.77;nan;101542.59;5051932;28;20200;-71
2022/03/10 04:01:32;;;;;;;9.07;5.00;;;1.60;99.90;;;1.78;nan;101544.25;5035089;28;20205;-71
2022/03/10 04:03:59;;;;;;;13.00;5.80;;;1.60;99.90;;;1.74;nan;101535.78;5052805;28;20232;-71
2022/03/10 04:06:26;;;;;;;10.35;5.75;;;1.50;99.90;;;1.81;nan;101542.47;5052893;28;20193;-71
2022/03/10 04:08:53;;;;;;;12.40;6.93;;;1.70;99.90;;;1.73;nan;101533.22;5051511;28;20202;-69
2022/03/10 04:11:20;;;;;;;9.70;6.00;;;1.60;99.90;;;1.75;nan;101544.31;5033741;28;20194;-70
2022/03/10 04:13:47;;;;;;;15.75;7.32;;;1.60;99.90;;;1.74;nan;101540.06;5033963;28;20226;-70
2022/03/10 04:16:17;;;;;;;11.23;6.10;;;1.60;99.90;;;1.77;nan;101535.69;5012203;28;20194;-70
2022/03/10 04:18:44;;;;;;;14.35;7.50;;;1.60;99.90;;;1.79;nan;101527.97;5010628;28;20202;-70
2022/03/10 04:21:11;;;;;;;17.58;8.93;;;1.60;99.90;;;1.86;nan;101534.66;5031859;28;20202;-71
2022/03/10 04:23:38;;;;;;;11.98;6.95;;;1.70;99.90;;;1.81;nan;101531.34;5017999;28;20225;-70
2022/03/10 04:26:05;;;;;;;11.77;5.63;;;1.70;99.90;;;1.74;nan;101529.78;5034722;28;20197;-70
2022/03/10 04:28:33;;;;;;;10.90;6.30;;;1.60;99.90;;;1.73;nan;101531.50;5015351;28;20233;-70
2022/03/10 04:31:01;;;;;;;12.18;4.25;;;1.60;99.90;;;1.81;nan;101523.63;5051499;28;20214;-70
2022/03/10 04:33:27;;;;;;;6.28;4.35;;;1.70;99.90;;;1.76;nan;101521.16;5034510;28;20233;-70
2022/03/10 04:35:56;;;;;;;9.35;5.10;;;1.60;99.90;;;1.70;nan;101521.28;5018503;28;20201;-70
2022/03/10 04:38:23;;;;;;;10.93;5.00;;;1.60;99.90;;;1.67;nan;101528.22;5051939;28;20202;-70
2022/03/10 04:40:50;;;;;;;10.13;5.72;;;1.50;99.90;;;1.68;nan;101524.75;5022470;28;20259;-70
2022/03/10 04:43:17;;;;;;;5.78;4.47;;;1.50;99.90;;;1.66;nan;101531.66;5035049;28;20232;-70
2022/03/10 04:45:44;;;;;;;12.43;6.10;;;1.60;99.90;;;1.63;nan;101531.72;5052570;28;20205;-70
2022/03/10 04:48:11;;;;;;;11.43;4.18;;;1.50;99.90;;;1.63;nan;101539.44;5018531;28;20221;-70
2022/03/10 04:50:38;;;;;;;5.85;4.22;;;1.50;99.90;;;1.65;nan;101535.13;5052567;28;20561;-70
2022/03/10 04:53:05;;;;;;;6.10;2.95;;;1.50;99.90;;;1.63;nan;101540.28;5051447;28;20231;-71
2022/03/10 04:55:33;;;;;;;8.23;5.05;;;1.50;99.90;;;1.68;nan;101542.78;5051400;28;20220;-70
2022/03/10 04:58:00;;;;;;;12.82;6.32;;;1.50;99.90;;;1.66;nan;101535.09;5051642;28;20712;-70
2022/03/10 05:00:30;;;;;;;12.15;5.50;;;1.50;99.90;;;1.62;nan;101540.34;5034220;28;20696;-71
2022/03/10 05:02:57;;;;;;;6.53;4.10;;;1.50;99.90;;;1.58;nan;101536.97;5051787;28;20206;-70
2022/03/10 05:05:24;;;;;;;11.82;5.13;;;1.50;99.90;;;1.58;nan;101544.69;5034339;28;20217;-71
2022/03/10 05:07:52;;;;;;;7.78;5.00;;;1.40;99.90;;;1.55;nan;101540.44;5052277;28;20232;-70
2022/03/10 05:10:19;;;;;;;10.05;5.05;;;1.40;99.90;;;1.51;nan;101540.56;5032733;28;20666;-70
2022/03/10 05:13:00;;;;;;;9.93;5.57;;;1.40;99.90;;;1.53;nan;101542.19;5040841;28;20380;-70
2022/03/10 05:15:32;;;;;;;8.93;5.22;;;1.40;99.90;;;1.50;nan;101544.00;5050985;28;20209;-70
2022/03/10 05:18:01;;;;;;;6.53;3.35;;;1.40;99.90;;;1.51;nan;101538.81;5035534;28;20212;-70
2022/03/10 05:20:30;;;;;;;6.57;3.15;;;1.40;99.90;;;1.52;nan;101549.94;5030211;28;20212;-70
2022/03/10 05:23:01;;;;;;;7.50;3.75;;;1.40;99.90;;;1.54;nan;101545.63;5014457;28;20631;-71
2022/03/10 05:25:35;;;;;;;8.77;4.70;;;1.40;99.90;;;1.52;nan;101543.09;5032106;28;20205;-70
2022/03/10 05:28:04;;;;;;;7.65;4.53;;;1.40;99.90;;;1.51;nan;101538.81;5037119;28;20220;-70
2022/03/10 05:30:31;;;;;;;15.32;4.88;;;1.40;99.90;;;1.54;nan;101546.47;5034003;28;20249;-70
2022/03/10 05:32:58;;;;;;;10.75;5.25;;;1.50;99.90;;;1.55;nan;101540.44;5033456;28;20205;-70
2022/03/10 05:35:29;;;;;;;2.22;1.75;;;1.50;99.90;;;1.54;nan;101543.06;5031987;28;20206;-71
2022/03/10 05:37:56;;;;;;;5.75;3.15;;;1.40;99.90;;;1.58;nan;101547.25;5047172;28;20197;-70
2022/03/10 05:40:23;;;;;;;6.90;4.25;;;1.50;99.90;;;1.60;nan;101549.81;5032600;28;20219;-70
2022/03/10 05:42:54;;;;;;;10.95;5.57;;;1.50;99.90;;;1.51;nan;101549.09;5032219;28;20220;-70
2022/03/10 05:45:22;;;;;;;11.40;5.75;;;1.50;99.90;;;1.58;nan;101554.16;5030374;28;20218;-70
2022/03/10 05:47:54;;;;;;;10.73;5.45;;;1.50;99.90;;;1.56;nan;101549.00;5023611;28;20230;-70
2022/03/10 05:50:25;;;;;;;9.75;5.30;;;1.50;99.90;;;1.56;nan;101559.28;5015371;28;20201;-70
2022/03/10 05:52:52;;;;;;;8.75;4.95;;;1.40;99.90;;;1.52;nan;101560.25;5020486;28;20198;-70
2022/03/10 05:55:23;;;;;;;12.73;6.03;;;1.40;99.90;;;1.58;nan;101562.69;5013338;28;20226;-70
2022/03/10 05:57:50;;;;;;;6.72;4.40;;;1.40;99.90;;;1.61;nan;101569.50;5040310;28;20209;-69
2022/03/10 06:00:18;;;;;;;11.77;5.70;;;1.50;99.90;;;1.56;nan;101570.44;5032798;28;20216;-70
2022/03/10 06:02:48;;;;;;;8.82;5.30;;;1.50;99.90;;;1.67;nan;101567.66;5050644;28;20217;-70
2022/03/10 06:05:15;;;;;;;10.57;5.43;;;1.60;99.90;;;1.75;nan;101575.19;5051099;28;20287;-70
2022/03/10 06:07:43;;;;;;;8.73;4.85;;;1.60;99.90;;;1.91;nan;101579.16;5031318;28;20217;-70
2022/03/10 06:10:10;;;;;;;3.70;2.08;;;1.80;99.90;;;2.01;nan;101575.50;5049183;28;20197;-71
2022/03/10 06:12:37;;;;;;;14.75;7.22;;;1.90;99.90;;;2.07;nan;101575.34;5031164;28;20669;-71
2022/03/10 06:15:08;;;;;;;19.40;7.75;;;2.00;99.90;;;2.34;nan;101570.41;5031200;28;20772;-69
2022/03/10 06:17:35;;;;;;;7.47;4.72;;;2.30;99.90;;;2.75;nan;101576.31;5032352;28;20209;-70
2022/03/10 06:20:04;;;;;;;8.57;4.57;;;2.80;99.90;;;3.29;nan;101579.19;5013946;28;20201;-70
2022/03/10 06:22:34;;;;;;;4.75;3.92;;;3.40;98.90;;;3.62;nan;101586.03;5005916;28;20696;-70
2022/03/10 06:25:02;;;;;;;15.60;7.20;;;3.80;97.60;;;4.25;nan;101588.44;5029413;28;20230;-71
2022/03/10 06:27:29;;;;;;;18.90;8.68;;;4.50;96.20;;;5.06;nan;101590.06;5031538;28;20225;-71
2022/03/10 06:29:56;;;;;;;16.65;7.45;;;5.60;93.00;;;5.89;nan;101602.63;5031841;28;20689;-72
2022/03/10 06:32:24;;;;;;;18.23;8.45;;;6.60;89.50;;;6.57;nan;101600.81;5032084;28;20276;-71
2022/03/10 06:34:56;;;;;;;17.38;8.38;;;7.40;82.90;;;7.23;nan;101602.38;5033345;28;20584;-71
2022/03/10 06:37:23;;;;;;;17.08;8.95;;;8.00;77.50;;;7.76;nan;101603.47;5032373;28;20208;-69
2022/03/10 06:39:50;;;;;;;21.40;9.55;;;8.50;73.00;;;7.97;nan;101604.25;5050072;28;20209;-71
2022/03/10 06:42:17;;;;;;;22.67;10.05;;;8.80;69.40;;;8.41;nan;101610.03;5031960;28;20208;-71
2022/03/10 06:44:45;;;;;;;16.50;8.73;;;9.20;67.90;;;9.21;nan;101608.63;5050132;28;20283;-71
2022/03/10 06:47:14;;;;;;;19.20;10.50;;;10.00;64.70;;;9.99;nan;101600.97;5032019;28;20197;-71
2022/03/10 06:49:41;;;;;;;22.70;10.73;;;11.00;60.80;;;10.66;nan;101606.81;5016257;28;20201;-72
2022/03/10 06:52:09;;;;;;;24.40;11.50;;;11.80;57.60;;;11.20;nan;101607.97;5032055;28;20599;-71
2022/03/10 06:54:38;;;;;;;21.83;11.53;;;12.40;55.10;;;11.65;nan;101613.06;5046894;28;20673;-71
2022/03/10 06:57:06;;;;;;;22.13;12.30;;;12.90;53.40;;;12.11;nan;101621.56;5032684;28;20619;-71
2022/03/10 06:59:33;;;;;;;22.97;11.50;;;13.40;51.70;;;12.64;nan;101619.91;5031499;28;21175;-71
2022/03/10 07:02:00;;;;;;;21.80;11.73;;;13.90;50.50;;;13.06;nan;101620.59;5034825;28;20642;-71
2022/03/10 07:04:27;;;;;;;19.40;10.90;;;14.30;49.10;;;13.43;nan;101628.59;5037013;28;20655;-71
2022/03/10 07:06:54;;;;;;;22.27;12.30;;;14.70;48.20;;;13.48;nan;101627.31;5055134;28;20630;-69
2022/03/10 07:09:21;;;;;;;18.80;11.37;;;14.80;47.70;;;13.85;nan;101621.22;5031989;28;20664;-71
2022/03/10 07:11:49;;;;;;;22.40;11.83;;;14.80;47.50;;;14.01;nan;101631.50;5019148;28;20645;-71
2022/03/10 07:14:16;;;;;;;19.83;12.13;;;15.00;46.90;;;14.45;nan;101637.06;5015365;28;21208;-71
2022/03/10 07:16:43;;;;;;;21.63;12.77;;;15.20;46.50;;;14.80;nan;101638.91;5000508;28;20625;-71
2022/03/10 07:19:12;;;;;;;21.20;12.43;;;15.40;45.80;;;15.31;nan;101638.47;5023531;28;20636;-71
2022/03/10 07:21:40;;;;;;;21.00;13.63;;;15.80;45.30;;;15.45;nan;101642.72;5019180;28;20631;-71
2022/03/10 07:24:08;;;;;;;20.50;11.27;;;16.00;44.60;;;16.06;nan;101644.06;5053045;28;21029;-71
2022/03/10 07:26:35;;;;;;;24.00;13.03;;;16.40;44.30;;;16.54;nan;101647.25;5045054;28;20647;-71
2022/03/10 07:29:03;;;;;;;20.20;12.90;;;17.00;43.60;;;17.04;nan;101639.50;5049361;28;20659;-71
2022/03/10 07:31:32;;;;;;;16.57;10.27;;;17.50;42.90;;;17.46;nan;101642.16;5036199;28;20624;-71
2022/03/10 07:33:59;;;;;;;16.87;10.23;;;18.00;42.00;;;17.58;nan;101651.69;5035765;28;21010;-71
2022/03/10 07:36:27;;;;;;;18.77;11.53;;;18.30;41.40;;;17.36;nan;101647.38;5034639;28;21206;-71
2022/03/10 07:38:54;;;;;;;20.60;11.93;;;18.20;41.00;;;17.42;nan;101646.03;5052779;28;20642;-72
2022/03/10 07:41:21;;;;;;;17.83;12.00;;;18.20;40.90;;;17.93;nan;101646.84;5035365;28;20626;-70
2022/03/10 07:43:48;;;;;;;24.43;13.90;;;18.60;40.50;;;18.13;nan;101643.31;5050887;28;20663;-70
2022/03/10 07:46:15;;;;;;;22.10;13.27;;;19.00;39.70;;;18.16;nan;101635.13;5027788;28;20627;-70
2022/03/10 07:48:42;;;;;;;19.60;12.73;;;19.10;39.60;;;18.60;nan;101639.13;5025823;28;20667;-70
2022/03/10 07:51:09;;;;;;;19.50;13.13;;;19.20;39.50;;;19.33;nan;101638.56;5052059;28;21175;-70
2022/03/10 07:53:36;;;;;;;21.83;13.07;;;19.90;38.90;;;20.09;nan;101640.13;5050109;28;20674;-70
2022/03/10 07:56:04;;;;;;;20.10;12.87;;;20.70;38.00;;;20.82;nan;101639.13;5052553;28;20631;-70
2022/03/10 07:58:32;;;;;;;17.30;13.27;;;21.20;37.40;;;21.53;nan;101637.19;5030483;28;20643;-70
2022/03/10 08:00:59;;;;;;;28.70;13.87;;;22.10;36.60;;;22.01;nan;101634.00;5033013;28;20632;-72
2022/03/10 08:03:26;;;;;;;22.73;13.07;;;22.60;36.00;;;22.79;nan;101638.88;5022818;28;20720;-71
2022/03/10 08:05:54;;;;;;;25.00;14.67;;;23.40;35.20;;;23.60;nan;101636.16;5036976;28;20653;-72
2022/03/10 08:08:22;;;;;;;21.00;14.00;;;24.20;34.20;;;24.26;nan;101633.09;5045213;28;21458;-70
2022/03/10 08:10:50;;;;;;;23.83;14.60;;;25.00;33.50;;;25.11;nan;101632.00;5043035;28;20672;-73
2022/03/10 08:13:18;;;;;;;22.27;13.97;;;25.80;32.80;;;25.59;nan;101628.91;5043549;28;20615;-72
2022/03/10 08:15:46;;;;;;;19.43;14.73;;;26.30;32.30;;;26.31;nan;101639.72;5018128;28;20661;-70
2022/03/10 08:18:13;;;;;;;17.87;13.63;;;26.90;31.70;;;26.03;nan;101637.72;5035505;28;20630;-69
2022/03/10 08:20:41;;;;;;;20.07;14.40;;;27.00;31.50;;;26.04;nan;101630.53;5052097;28;20685;-69
2022/03/10 08:23:11;;;;;;;17.80;14.00;;;27.20;31.30;;;26.97;nan;101631.38;5052911;28;20643;-70
2022/03/10 08:25:38;;;;;;;19.10;13.50;;;27.90;31.00;;;27.83;nan;101627.47;5035970;28;20639;-70
2022/03/10 08:28:08;;;;;;;18.53;13.60;;;28.70;30.60;;;27.88;nan;101623.16;5031557;28;21237;-69
2022/03/10 08:30:36;;;;;;;20.07;13.93;;;29.00;30.10;;;28.59;nan;101624.47;5023932;28;20627;-69
2022/03/10 08:33:04;;;;;;;19.33;13.10;;;29.60;29.90;;;29.01;nan;101621.41;5052546;28;20617;-70
2022/03/10 08:35:31;;;;;;;17.23;12.47;;;30.30;29.60;;;28.36;nan;101616.78;5017734;28;20612;-70
2022/03/10 08:37:59;;;;;;;17.43;12.50;;;30.20;29.20;;;28.55;nan;101620.53;5050884;28;20639;-72
2022/03/10 08:40:26;;;;;;;19.17;14.73;;;30.30;29.30;;;28.92;nan;101603.84;5028510;28;20644;-70
2022/03/10 08:42:53;;;;;;;17.63;13.43;;;30.60;29.20;;;29.51;nan;101603.81;5050761;28;20627;-70
2022/03/10 08:45:25;;;;;;;22.30;13.50;;;31.30;29.50;;;29.57;nan;101596.75;5049336;28;20670;-70
2022/03/10 08:47:54;;;;;;;23.80;14.20;;;31.80;28.60;;;30.21;nan;101594.03;5022133;28;20635;-70
2022/03/10 08:50:24;;;;;;;16.43;12.77;;;32.50;28.50;;;30.70;nan;101596.84;5020647;28;20663;-70
2022/03/10 08:52:54;;;;;;;18.30;13.13;;;33.10;28.30;;;31.25;nan;101597.84;5050795;28;20631;-72
2022/03/10 08:55:22;;;;;;;18.13;14.10;;;33.90;28.00;;;31.36;nan;101599.81;5030854;28;20664;-71
2022/03/10 08:57:50;;;;;;;17.20;13.70;;;34.50;28.30;;;32.31;nan;101595.56;5051601;28;20623;-70
2022/03/10 09:00:20;;;;;;;22.20;12.90;;;35.10;27.60;;;33.05;nan;101592.34;5033085;28;20984;-70
2022/03/10 09:02:53;;;;;;;16.00;13.13;;;35.90;27.30;;;33.23;nan;101589.50;5052888;28;21147;-71
2022/03/10 09:05:20;;;;;;;16.33;13.77;;;36.50;27.00;;;33.61;nan;101584.41;5016830;28;20667;-70
2022/03/10 09:07:47;;;;;;;19.80;15.30;;;36.90;26.80;;;33.63;nan;101581.50;4998688;28;20643;-70
2022/03/10 09:10:15;;;;;;;18.73;13.37;;;37.00;26.80;;;34.30;nan;101581.50;4998347;28;21005;-69
2022/03/10 09:12:42;;;;;;;17.30;13.73;;;37.50;26.70;;;34.38;nan;101575.66;5007106;28;20636;-71
2022/03/10 09:15:12;;;;;;;18.47;15.67;;;37.90;26.60;;;33.93;nan;101571.25;5029048;28;20652;-70
2022/03/10 09:17:39;;;;;;;17.10;13.13;;;38.00;26.40;;;35.12;nan;101579.06;5014512;28;20620;-69
2022/03/10 09:20:07;;;;;;;17.97;14.70;;;38.60;26.50;;;34.86;nan;101577.84;5019547;28;20632;-69
2022/03/10 09:22:35;;;;;;;23.03;14.33;;;38.80;26.30;;;35.40;nan;101583.53;5052790;28;20723;-69
2022/03/10 09:25:05;;;;;;;19.00;15.00;;;39.10;26.30;;;35.34;nan;101574.50;5051087;28;20654;-71
2022/03/10 09:27:33;;;;;;;20.30;15.53;;;39.30;26.30;;;35.39;nan;101566.44;5031022;28;20636;-69
2022/03/10 09:29:59;;;;;;;16.20;14.53;;;39.00;26.10;;;36.27;nan;101566.13;5031854;28;20668;-68
2022/03/10 09:32:34;;;;;;;16.30;14.60;;;39.50;26.00;;;36.42;nan;101569.00;5050521;28;20620;-69
2022/03/10 09:35:06;;;;;;;17.80;15.03;;;40.00;25.90;;;36.32;nan;101568.06;5046427;23;20691;-68
2022/03/10 09:37:34;;;;;;;18.47;15.03;;;40.10;25.90;;;36.87;nan;101565.00;5014221;28;20620;-67
2022/03/10 09:40:03;;;;;;;17.40;13.80;;;40.80;25.80;;;37.88;nan;101569.13;5019057;28;20636;-67
2022/03/10 09:42:32;;;;;;;15.73;13.60;;;41.30;25.60;;;38.27;nan;101559.38;5031430;28;20616;-68
2022/03/10 09:45:09;;;;;;;14.07;12.63;;;41.90;25.50;;;38.30;nan;101563.47;5029643;28;20668;-71
2022/03/10 09:47:39;;;;;;;20.43;15.57;;;42.20;25.40;;;38.47;nan;101564.03;5014383;28;21208;-69
2022/03/10 09:50:17;;;;;;;18.07;14.40;;;42.60;25.20;;;38.35;nan;101560.78;5029628;28;21223;-68
2022/03/10 09:52:46;;;;;;;18.07;14.83;;;42.80;25.10;;;36.73;nan;101555.66;5028148;28;20651;-71
2022/03/10 09:55:16;;;;;;;15.60;13.90;;;41.70;25.00;;;36.50;nan;101559.56;5030523;28;20664;-70
2022/03/10 09:57:45;;;;;;;15.43;13.40;;;40.80;25.20;;;37.53;nan;101560.78;5010751;28;20633;-70
2022/03/10 10:00:16;;;;;;;17.30;13.90;;;41.40;25.20;;;36.68;nan;101558.34;5012383;28;20638;-68
2022/03/10 10:02:44;;;;;;;14.93;13.03;;;41.60;25.00;;;38.27;nan;101555.88;5010862;28;20622;-71
2022/03/10 10:05:28;;;;;;;22.50;14.93;;;42.20;25.10;;;36.99;nan;101557.50;5005306;28;20662;-71
2022/03/10 10:08:13;;;;;;;15.77;12.10;;;42.00;24.90;;;37.57;nan;101554.53;5010000;28;20633;-71
2022/03/10 10:10:45;;;;;;;17.60;12.47;;;41.90;24.80;;;39.06;nan;101553.38;5011304;28;20630;-70
2022/03/10 10:13:32;;;;;;;21.17;13.93;;;42.50;25.00;;;38.90;nan;101559.94;4992903;28;20624;-69
2022/03/10 10:16:08;;;;;;;14.43;12.93;;;43.40;24.90;;;39.52;nan;101552.13;5002139;28;20625;-70
2022/03/10 10:18:38;;;;;;;15.47;13.80;;;43.60;24.80;;;39.08;nan;101551.97;5014033;28;20644;-71
2022/03/10 10:21:14;;;;;;;14.70;12.50;;;43.40;24.70;;;39.36;nan;101548.63;5010702;28;20614;-68
2022/03/10 10:23:41;;;;;;;15.27;12.93;;;43.40;24.80;;;39.47;nan;101542.03;4989737;28;20626;-69
2022/03/10 10:26:11;;;;;;;15.83;13.13;;;43.40;24.80;;;40.01;nan;101543.97;5016278;28;21008;-71
2022/03/10 10:28:47;;;;;;;14.30;12.60;;;43.80;24.80;;;40.46;nan;101549.13;5009269;28;21298;-71
2022/03/10 10:31:16;;;;;;;16.20;12.23;;;44.30;24.70;;;40.84;nan;101552.88;5025634;28;21005;-71
2022/03/10 10:34:09;;;;;;;13.90;11.60;;;44.60;24.60;;;40.83;nan;101551.22;5030120;28;21070;-71
2022/03/10 10:36:38;;;;;;;13.23;11.93;;;44.60;24.60;;;40.88;nan;101542.97;4996132;28;20636;-69
2022/03/10 10:39:17;;;;;;;14.07;12.67;;;44.60;24.50;;;40.42;nan;101542.59;5008037;28;20702;-68